CFG8PM EDDH-LEPA
Flight info
| Callsign | CFG8PM |
|---|---|
| Flight time | 2h 31m |
| Altitude | 33000 |
| Route | IDEKO7G IDEKO N850 XAROL DCT BOMBI DCT GIGET DCT ABUKA DCT KRH DCT NATOR DCT LUTIX DCT BENOT DCT NEMOS DCT GEVEA DCT INCUS DCT BALSI DCT RETNO DCT TUPOX DCT MTG DCT DIVKO DCT VATIR N852 VERSO L129 LUNIK |
| Aircraft | A21N/M-SBDE3FGHIJ1J4J7LORVWXYZ/SB2D1G1 |
Departure
| Time | 2026-04-24 14:26 |
|---|---|
| Airport | Hamburg Helmut Schmidt Airport (EDDH) |
Arrival
| Time | 2026-04-24 16:57 |
|---|---|
| Airport | Palma de Mallorca Airport (LEPA) |
| Time | Latitude | Longitude | Altitude | Speed | Heading |
|---|---|---|---|---|---|
| 2026-04-24 13:36 | 53.63372 | 10.00335 | 50 ft | 0 kts | 86° |
| 2026-04-24 13:54 | 53.63372 | 10.00334 | 54 ft | 0 kts | 86° |
| 2026-04-24 14:04 | 53.63372 | 10.00335 | 54 ft | 0 kts | 86° |
| 2026-04-24 14:14 | 53.63372 | 10.00329 | 54 ft | 3 kts | 86° |
| 2026-04-24 14:15 | 53.63370 | 10.00284 | 48 ft | 4 kts | 86° |
| 2026-04-24 14:15 | 53.63369 | 10.00239 | 52 ft | 1 kts | 86° |
| 2026-04-24 14:15 | 53.63368 | 10.00210 | 54 ft | 1 kts | 98° |
| 2026-04-24 14:15 | 53.63383 | 10.00162 | 51 ft | 1 kts | 155° |
| 2026-04-24 14:16 | 53.63392 | 10.00157 | 51 ft | 1 kts | 176° |
| 2026-04-24 14:19 | 53.63390 | 10.00157 | 51 ft | 1 kts | 176° |
| 2026-04-24 14:19 | 53.63374 | 10.00159 | 50 ft | 4 kts | 176° |
| 2026-04-24 14:20 | 53.63334 | 10.00164 | 54 ft | 8 kts | 175° |
| 2026-04-24 14:20 | 53.63274 | 10.00172 | 54 ft | 9 kts | 175° |
| 2026-04-24 14:20 | 53.63204 | 10.00181 | 54 ft | 11 kts | 175° |
| 2026-04-24 14:20 | 53.63125 | 10.00191 | 54 ft | 11 kts | 175° |
| 2026-04-24 14:21 | 53.63057 | 10.00171 | 52 ft | 11 kts | 210° |
| 2026-04-24 14:21 | 53.62990 | 10.00098 | 54 ft | 12 kts | 212° |
| 2026-04-24 14:21 | 53.62931 | 10.00022 | 54 ft | 11 kts | 235° |
| 2026-04-24 14:21 | 53.62902 | 9.99931 | 52 ft | 6 kts | 243° |
| 2026-04-24 14:22 | 53.62899 | 9.99922 | 53 ft | 0 kts | 243° |
| 2026-04-24 14:24 | 53.62899 | 9.99921 | 53 ft | 0 kts | 243° |
| 2026-04-24 14:24 | 53.62896 | 9.99910 | 50 ft | 3 kts | 243° |
| 2026-04-24 14:24 | 53.62881 | 9.99862 | 52 ft | 6 kts | 243° |
| 2026-04-24 14:24 | 53.62863 | 9.99789 | 48 ft | 8 kts | 268° |
| 2026-04-24 14:25 | 53.62916 | 9.99705 | 50 ft | 21 kts | 332° |
| 2026-04-24 14:25 | 53.63263 | 9.99403 | 52 ft | 92 kts | 332° |
| 2026-04-24 14:25 | 53.64039 | 9.98730 | 54 ft | 156 kts | 330° |
| 2026-04-24 14:25 | 53.65008 | 9.97884 | 650 ft | 158 kts | 328° |
| 2026-04-24 14:26 | 53.65988 | 9.97024 | 1389 ft | 162 kts | 328° |
| 2026-04-24 14:26 | 53.67052 | 9.96148 | 1918 ft | 176 kts | 329° |
| 2026-04-24 14:26 | 53.68179 | 9.95179 | 2520 ft | 189 kts | 330° |
| 2026-04-24 14:26 | 53.69386 | 9.94151 | 3126 ft | 200 kts | 332° |
| 2026-04-24 14:27 | 53.70571 | 9.92913 | 3862 ft | 201 kts | 316° |
| 2026-04-24 14:27 | 53.71325 | 9.90930 | 4567 ft | 206 kts | 290° |
| 2026-04-24 14:27 | 53.71401 | 9.88348 | 4858 ft | 242 kts | 260° |
| 2026-04-24 14:27 | 53.70840 | 9.85526 | 5313 ft | 263 kts | 255° |
| 2026-04-24 14:28 | 53.70201 | 9.82593 | 6050 ft | 269 kts | 255° |
| 2026-04-24 14:28 | 53.69568 | 9.79587 | 6797 ft | 274 kts | 257° |
| 2026-04-24 14:28 | 53.68943 | 9.76522 | 7556 ft | 278 kts | 257° |
| 2026-04-24 14:28 | 53.68318 | 9.73423 | 8337 ft | 280 kts | 257° |
| 2026-04-24 14:29 | 53.67696 | 9.70290 | 9132 ft | 283 kts | 257° |
| 2026-04-24 14:29 | 53.67069 | 9.67124 | 9927 ft | 286 kts | 257° |
| 2026-04-24 14:29 | 53.66429 | 9.63913 | 10521 ft | 296 kts | 255° |
| 2026-04-24 14:29 | 53.65450 | 9.60708 | 10817 ft | 322 kts | 237° |
| 2026-04-24 14:30 | 53.63716 | 9.58109 | 11099 ft | 349 kts | 213° |
| 2026-04-24 14:30 | 53.61384 | 9.56726 | 11644 ft | 363 kts | 191° |
| 2026-04-24 14:30 | 53.58854 | 9.56301 | 12372 ft | 366 kts | 186° |
| 2026-04-24 14:30 | 53.56309 | 9.55974 | 13111 ft | 369 kts | 187° |
| 2026-04-24 14:31 | 53.53743 | 9.55578 | 13852 ft | 371 kts | 187° |
| 2026-04-24 14:31 | 53.51167 | 9.55123 | 14515 ft | 374 kts | 188° |
| 2026-04-24 14:31 | 53.48571 | 9.54630 | 15176 ft | 376 kts | 189° |
| 2026-04-24 14:31 | 53.45963 | 9.54122 | 15840 ft | 379 kts | 189° |
| 2026-04-24 14:32 | 53.43369 | 9.53611 | 16509 ft | 381 kts | 189° |
| 2026-04-24 14:32 | 53.40728 | 9.53091 | 17168 ft | 384 kts | 189° |
| 2026-04-24 14:32 | 53.38064 | 9.52569 | 17823 ft | 386 kts | 189° |
| 2026-04-24 14:32 | 53.35382 | 9.52043 | 18458 ft | 389 kts | 189° |
| 2026-04-24 14:33 | 53.32684 | 9.51516 | 19021 ft | 391 kts | 189° |
| 2026-04-24 14:33 | 53.29975 | 9.50988 | 19569 ft | 394 kts | 190° |
| 2026-04-24 14:33 | 53.27242 | 9.50451 | 20116 ft | 396 kts | 190° |
| 2026-04-24 14:33 | 53.24497 | 9.49912 | 20656 ft | 399 kts | 190° |
| 2026-04-24 14:34 | 53.21734 | 9.49371 | 21188 ft | 401 kts | 190° |
| 2026-04-24 14:34 | 53.18948 | 9.48829 | 21712 ft | 404 kts | 190° |
| 2026-04-24 14:34 | 53.16150 | 9.48286 | 22238 ft | 406 kts | 190° |
| 2026-04-24 14:34 | 53.13329 | 9.47739 | 22751 ft | 409 kts | 190° |
| 2026-04-24 14:35 | 53.10497 | 9.47191 | 23253 ft | 412 kts | 191° |
| 2026-04-24 14:35 | 53.07641 | 9.46638 | 23748 ft | 414 kts | 191° |
| 2026-04-24 14:35 | 53.04775 | 9.46084 | 24160 ft | 416 kts | 191° |
| 2026-04-24 14:35 | 53.01890 | 9.45528 | 24580 ft | 418 kts | 191° |
| 2026-04-24 14:36 | 52.98991 | 9.44967 | 24995 ft | 420 kts | 191° |
| 2026-04-24 14:36 | 52.96090 | 9.44365 | 25401 ft | 421 kts | 192° |
| 2026-04-24 14:36 | 52.93178 | 9.43727 | 25809 ft | 423 kts | 192° |
| 2026-04-24 14:36 | 52.90254 | 9.43090 | 26211 ft | 425 kts | 192° |
| 2026-04-24 14:37 | 52.87314 | 9.42459 | 26590 ft | 427 kts | 191° |
| 2026-04-24 14:37 | 52.84368 | 9.41828 | 26991 ft | 428 kts | 191° |
| 2026-04-24 14:37 | 52.81404 | 9.41193 | 27378 ft | 430 kts | 191° |
| 2026-04-24 14:37 | 52.78433 | 9.40561 | 27751 ft | 431 kts | 191° |
| 2026-04-24 14:38 | 52.75455 | 9.39933 | 28119 ft | 433 kts | 191° |
| 2026-04-24 14:38 | 52.72458 | 9.39300 | 28477 ft | 435 kts | 191° |
| 2026-04-24 14:38 | 52.69455 | 9.38664 | 28836 ft | 436 kts | 191° |
| 2026-04-24 14:38 | 52.66437 | 9.38025 | 29183 ft | 438 kts | 191° |
| 2026-04-24 14:39 | 52.63409 | 9.37383 | 29519 ft | 439 kts | 192° |
| 2026-04-24 14:39 | 52.60381 | 9.36636 | 29864 ft | 440 kts | 193° |
| 2026-04-24 14:39 | 52.57358 | 9.35845 | 30217 ft | 441 kts | 193° |
| 2026-04-24 14:39 | 52.54332 | 9.35047 | 30603 ft | 439 kts | 193° |
| 2026-04-24 14:40 | 52.51323 | 9.34260 | 30991 ft | 437 kts | 193° |
| 2026-04-24 14:40 | 52.48334 | 9.33481 | 31363 ft | 435 kts | 194° |
| 2026-04-24 14:40 | 52.45348 | 9.32698 | 31721 ft | 433 kts | 194° |
| 2026-04-24 14:40 | 52.42379 | 9.31921 | 32070 ft | 432 kts | 194° |
| 2026-04-24 14:41 | 52.39460 | 9.31161 | 32381 ft | 430 kts | 194° |
| 2026-04-24 14:41 | 52.36504 | 9.30389 | 32694 ft | 429 kts | 194° |
| 2026-04-24 14:41 | 52.33555 | 9.29619 | 32998 ft | 428 kts | 194° |
| 2026-04-24 14:41 | 52.30615 | 9.28849 | 33177 ft | 428 kts | 194° |
| 2026-04-24 14:42 | 52.27684 | 9.28085 | 33208 ft | 427 kts | 194° |
| 2026-04-24 14:42 | 52.24749 | 9.27322 | 33105 ft | 426 kts | 194° |
| 2026-04-24 14:42 | 52.21807 | 9.26674 | 33201 ft | 429 kts | 192° |
| 2026-04-24 14:43 | 52.15874 | 9.25588 | 33201 ft | 428 kts | 192° |
| 2026-04-24 14:43 | 52.09942 | 9.24520 | 33195 ft | 429 kts | 191° |
| 2026-04-24 14:44 | 52.04015 | 9.23336 | 33196 ft | 428 kts | 194° |
| 2026-04-24 14:44 | 51.98142 | 9.21798 | 33192 ft | 427 kts | 194° |
| 2026-04-24 14:45 | 51.92272 | 9.20268 | 33185 ft | 427 kts | 194° |
| 2026-04-24 14:45 | 51.86388 | 9.18825 | 33197 ft | 428 kts | 193° |
| 2026-04-24 14:46 | 51.80479 | 9.17539 | 33198 ft | 428 kts | 192° |
| 2026-04-24 14:46 | 51.74568 | 9.16257 | 33199 ft | 428 kts | 192° |
| 2026-04-24 14:47 | 51.68663 | 9.14970 | 33183 ft | 428 kts | 192° |
| 2026-04-24 14:47 | 51.62743 | 9.13693 | 33208 ft | 429 kts | 192° |
| 2026-04-24 14:48 | 51.56820 | 9.12425 | 33210 ft | 430 kts | 192° |
| 2026-04-24 14:48 | 51.50897 | 9.11129 | 33212 ft | 429 kts | 194° |
| 2026-04-24 14:49 | 51.45066 | 9.09223 | 33204 ft | 427 kts | 196° |
| 2026-04-24 14:49 | 51.39245 | 9.07231 | 33209 ft | 428 kts | 196° |
| 2026-04-24 14:50 | 51.33424 | 9.05251 | 33212 ft | 428 kts | 196° |
| 2026-04-24 14:50 | 51.27517 | 9.03767 | 33207 ft | 431 kts | 191° |
| 2026-04-24 14:51 | 51.21568 | 9.02595 | 33188 ft | 431 kts | 191° |
| 2026-04-24 14:51 | 51.15610 | 9.01415 | 33201 ft | 432 kts | 191° |
| 2026-04-24 14:52 | 51.09690 | 9.00242 | 33198 ft | 432 kts | 191° |
| 2026-04-24 14:52 | 51.03698 | 8.99054 | 33203 ft | 431 kts | 191° |
| 2026-04-24 14:53 | 50.97739 | 8.97870 | 33193 ft | 432 kts | 191° |
| 2026-04-24 14:53 | 50.91774 | 8.96694 | 33204 ft | 432 kts | 191° |
| 2026-04-24 14:54 | 50.85843 | 8.95528 | 33203 ft | 432 kts | 191° |
| 2026-04-24 14:54 | 50.79834 | 8.94344 | 33204 ft | 432 kts | 191° |
| 2026-04-24 14:55 | 50.74875 | 8.93369 | 33208 ft | 432 kts | 191° |
| 2026-04-24 14:55 | 50.67905 | 8.92007 | 33199 ft | 432 kts | 191° |
| 2026-04-24 14:56 | 50.61942 | 8.90851 | 33196 ft | 431 kts | 191° |
| 2026-04-24 14:56 | 50.55976 | 8.89687 | 33200 ft | 432 kts | 191° |
| 2026-04-24 14:57 | 50.50016 | 8.88525 | 33195 ft | 432 kts | 190° |
| 2026-04-24 14:57 | 50.44044 | 8.87367 | 33190 ft | 432 kts | 190° |
| 2026-04-24 14:58 | 50.38079 | 8.86213 | 33188 ft | 432 kts | 190° |
| 2026-04-24 14:58 | 50.32110 | 8.85068 | 33186 ft | 432 kts | 190° |
| 2026-04-24 14:59 | 50.26142 | 8.83926 | 33193 ft | 432 kts | 189° |
| 2026-04-24 14:59 | 50.20178 | 8.82792 | 33206 ft | 432 kts | 190° |
| 2026-04-24 15:00 | 50.14201 | 8.81652 | 33191 ft | 432 kts | 190° |
| 2026-04-24 15:00 | 50.08227 | 8.80512 | 33175 ft | 432 kts | 189° |
| 2026-04-24 15:01 | 50.02253 | 8.79342 | 33188 ft | 432 kts | 190° |
| 2026-04-24 15:01 | 49.96289 | 8.78080 | 33197 ft | 433 kts | 190° |
| 2026-04-24 15:02 | 49.90324 | 8.76839 | 33191 ft | 433 kts | 190° |
| 2026-04-24 15:02 | 49.84353 | 8.75595 | 33182 ft | 433 kts | 189° |
| 2026-04-24 15:03 | 49.79395 | 8.74571 | 33182 ft | 433 kts | 189° |
| 2026-04-24 15:03 | 49.73422 | 8.73344 | 33200 ft | 433 kts | 189° |
| 2026-04-24 15:04 | 49.66479 | 8.71922 | 33202 ft | 433 kts | 189° |
| 2026-04-24 15:04 | 49.60505 | 8.70724 | 33201 ft | 433 kts | 189° |
| 2026-04-24 15:05 | 49.55498 | 8.69715 | 33207 ft | 433 kts | 189° |
| 2026-04-24 15:05 | 49.49496 | 8.68508 | 33216 ft | 439 kts | 189° |
| 2026-04-24 15:06 | 49.43377 | 8.67281 | 33218 ft | 445 kts | 189° |
| 2026-04-24 15:06 | 49.37278 | 8.66037 | 33199 ft | 445 kts | 189° |
| 2026-04-24 15:07 | 49.31135 | 8.64801 | 33194 ft | 445 kts | 189° |
| 2026-04-24 15:07 | 49.24990 | 8.63557 | 33189 ft | 445 kts | 189° |
| 2026-04-24 15:08 | 49.18853 | 8.62319 | 33174 ft | 445 kts | 188° |
| 2026-04-24 15:08 | 49.12702 | 8.61086 | 33174 ft | 446 kts | 188° |
| 2026-04-24 15:09 | 49.06544 | 8.59857 | 33173 ft | 446 kts | 188° |
| 2026-04-24 15:09 | 49.00390 | 8.58629 | 33178 ft | 446 kts | 189° |
| 2026-04-24 15:10 | 48.94313 | 8.56821 | 33175 ft | 445 kts | 193° |
| 2026-04-24 15:10 | 48.88259 | 8.54847 | 33173 ft | 444 kts | 193° |
| 2026-04-24 15:11 | 48.82209 | 8.52890 | 33177 ft | 445 kts | 193° |
| 2026-04-24 15:11 | 48.76155 | 8.50935 | 33169 ft | 444 kts | 193° |
| 2026-04-24 15:12 | 48.70121 | 8.48990 | 33173 ft | 443 kts | 193° |
| 2026-04-24 15:12 | 48.61093 | 8.46097 | 33174 ft | 442 kts | 193° |
| 2026-04-24 15:13 | 48.55065 | 8.44168 | 33166 ft | 443 kts | 192° |
| 2026-04-24 15:13 | 48.49046 | 8.42254 | 33164 ft | 442 kts | 193° |
| 2026-04-24 15:14 | 48.43021 | 8.40337 | 33167 ft | 443 kts | 193° |
| 2026-04-24 15:14 | 48.36997 | 8.38433 | 33166 ft | 442 kts | 192° |
| 2026-04-24 15:15 | 48.31007 | 8.36538 | 33174 ft | 443 kts | 192° |
| 2026-04-24 15:15 | 48.24948 | 8.34617 | 33171 ft | 442 kts | 192° |
| 2026-04-24 15:16 | 48.18961 | 8.32672 | 33166 ft | 443 kts | 196° |
| 2026-04-24 15:16 | 48.13384 | 8.28754 | 33172 ft | 442 kts | 212° |
| 2026-04-24 15:17 | 48.08233 | 8.23708 | 33173 ft | 441 kts | 213° |
| 2026-04-24 15:17 | 48.03074 | 8.18695 | 33173 ft | 443 kts | 212° |
| 2026-04-24 15:18 | 47.97900 | 8.13722 | 33179 ft | 442 kts | 212° |
| 2026-04-24 15:18 | 47.92750 | 8.08789 | 33179 ft | 442 kts | 212° |
| 2026-04-24 15:19 | 47.87559 | 8.03825 | 33180 ft | 445 kts | 212° |
| 2026-04-24 15:19 | 47.82364 | 7.98865 | 33181 ft | 443 kts | 212° |
| 2026-04-24 15:20 | 47.77165 | 7.93916 | 33180 ft | 444 kts | 212° |
| 2026-04-24 15:20 | 47.71971 | 7.88986 | 33179 ft | 445 kts | 212° |
| 2026-04-24 15:21 | 47.66737 | 7.84032 | 33174 ft | 446 kts | 212° |
| 2026-04-24 15:21 | 47.61504 | 7.79088 | 33172 ft | 446 kts | 212° |
| 2026-04-24 15:22 | 47.56268 | 7.74154 | 33171 ft | 446 kts | 212° |
| 2026-04-24 15:23 | 47.48396 | 7.66760 | 33173 ft | 448 kts | 212° |
| 2026-04-24 15:23 | 47.40508 | 7.59372 | 33172 ft | 447 kts | 212° |
| 2026-04-24 15:25 | 47.28237 | 7.47940 | 33145 ft | 448 kts | 211° |
| 2026-04-24 15:26 | 47.14769 | 7.33962 | 33144 ft | 447 kts | 229° |
| 2026-04-24 15:27 | 47.03178 | 7.12534 | 33180 ft | 448 kts | 230° |
| 2026-04-24 15:29 | 46.91446 | 6.91261 | 33140 ft | 443 kts | 225° |
| 2026-04-24 15:31 | 46.74838 | 6.71250 | 33148 ft | 443 kts | 218° |
| 2026-04-24 15:33 | 46.55664 | 6.48587 | 33166 ft | 444 kts | 218° |
| 2026-04-24 15:34 | 46.43753 | 6.34627 | 33165 ft | 439 kts | 217° |
| 2026-04-24 15:35 | 46.31907 | 6.20805 | 33142 ft | 439 kts | 217° |
| 2026-04-24 15:36 | 46.27072 | 6.15432 | 33140 ft | 437 kts | 211° |
| 2026-04-24 15:36 | 46.21460 | 6.12264 | 33147 ft | 435 kts | 190° |
| 2026-04-24 15:36 | 46.18464 | 6.11571 | 33149 ft | 435 kts | 188° |
| 2026-04-24 15:37 | 46.12474 | 6.10327 | 33143 ft | 436 kts | 188° |
| 2026-04-24 15:37 | 46.06473 | 6.09022 | 33118 ft | 436 kts | 188° |
| 2026-04-24 15:38 | 46.00496 | 6.07699 | 33108 ft | 436 kts | 188° |
| 2026-04-24 15:38 | 45.94474 | 6.06363 | 33116 ft | 438 kts | 188° |
| 2026-04-24 15:39 | 45.88446 | 6.05035 | 33115 ft | 438 kts | 188° |
| 2026-04-24 15:39 | 45.82413 | 6.03709 | 33115 ft | 438 kts | 188° |
| 2026-04-24 15:40 | 45.76382 | 6.02374 | 33114 ft | 439 kts | 188° |
| 2026-04-24 15:40 | 45.70342 | 6.01041 | 33116 ft | 439 kts | 188° |
| 2026-04-24 15:41 | 45.64299 | 5.99718 | 33084 ft | 439 kts | 188° |
| 2026-04-24 15:41 | 45.58251 | 5.98397 | 33079 ft | 440 kts | 188° |
| 2026-04-24 15:42 | 45.52184 | 5.97064 | 33090 ft | 441 kts | 188° |
| 2026-04-24 15:42 | 45.46140 | 5.95616 | 33088 ft | 441 kts | 191° |
| 2026-04-24 15:43 | 45.40143 | 5.93775 | 33098 ft | 441 kts | 192° |
| 2026-04-24 15:43 | 45.34143 | 5.91874 | 33108 ft | 442 kts | 192° |
| 2026-04-24 15:44 | 45.28172 | 5.90011 | 33114 ft | 442 kts | 192° |
| 2026-04-24 15:44 | 45.22166 | 5.88126 | 33115 ft | 442 kts | 192° |
| 2026-04-24 15:45 | 45.16157 | 5.86257 | 33115 ft | 442 kts | 192° |
| 2026-04-24 15:45 | 45.10148 | 5.84395 | 33123 ft | 442 kts | 192° |
| 2026-04-24 15:46 | 45.04133 | 5.82538 | 33120 ft | 442 kts | 192° |
| 2026-04-24 15:46 | 44.98099 | 5.80674 | 33120 ft | 444 kts | 191° |
| 2026-04-24 15:47 | 44.92071 | 5.78819 | 33119 ft | 444 kts | 191° |
| 2026-04-24 15:47 | 44.86035 | 5.76965 | 33125 ft | 444 kts | 191° |
| 2026-04-24 15:48 | 44.79989 | 5.75112 | 33117 ft | 446 kts | 191° |
| 2026-04-24 15:48 | 44.73922 | 5.73257 | 33115 ft | 446 kts | 191° |
| 2026-04-24 15:49 | 44.67868 | 5.71413 | 33123 ft | 446 kts | 191° |
| 2026-04-24 15:49 | 44.61818 | 5.69567 | 33113 ft | 442 kts | 192° |
| 2026-04-24 15:50 | 44.55800 | 5.67738 | 33113 ft | 444 kts | 192° |
| 2026-04-24 15:50 | 44.49811 | 5.65923 | 33111 ft | 442 kts | 192° |
| 2026-04-24 15:51 | 44.43789 | 5.64104 | 33110 ft | 444 kts | 191° |
| 2026-04-24 15:51 | 44.37781 | 5.62163 | 33114 ft | 443 kts | 197° |
| 2026-04-24 15:52 | 44.32003 | 5.59102 | 33114 ft | 445 kts | 201° |
| 2026-04-24 15:52 | 44.26245 | 5.55917 | 33109 ft | 446 kts | 200° |
| 2026-04-24 15:53 | 44.20455 | 5.52749 | 33111 ft | 447 kts | 200° |
| 2026-04-24 15:53 | 44.15641 | 5.50130 | 33104 ft | 447 kts | 200° |
| 2026-04-24 15:54 | 44.09848 | 5.46973 | 33113 ft | 447 kts | 200° |
| 2026-04-24 15:54 | 44.04038 | 5.43813 | 33116 ft | 450 kts | 200° |
| 2026-04-24 15:55 | 43.98206 | 5.40659 | 33113 ft | 450 kts | 200° |
| 2026-04-24 15:55 | 43.92374 | 5.37497 | 33121 ft | 450 kts | 200° |
| 2026-04-24 15:56 | 43.86543 | 5.34345 | 33119 ft | 452 kts | 200° |
| 2026-04-24 15:56 | 43.80684 | 5.31187 | 33130 ft | 450 kts | 200° |
| 2026-04-24 15:57 | 43.74840 | 5.28048 | 33130 ft | 450 kts | 200° |
| 2026-04-24 15:57 | 43.68998 | 5.24909 | 33139 ft | 451 kts | 200° |
| 2026-04-24 15:58 | 43.63135 | 5.21763 | 33149 ft | 453 kts | 200° |
| 2026-04-24 15:58 | 43.57261 | 5.18620 | 33143 ft | 453 kts | 200° |
| 2026-04-24 15:59 | 43.51386 | 5.15482 | 33149 ft | 453 kts | 200° |
| 2026-04-24 15:59 | 43.45492 | 5.12344 | 33141 ft | 455 kts | 200° |
| 2026-04-24 16:00 | 43.39595 | 5.09159 | 33141 ft | 455 kts | 204° |
| 2026-04-24 16:00 | 43.34202 | 5.04608 | 33144 ft | 456 kts | 214° |
| 2026-04-24 16:01 | 43.28984 | 4.99625 | 33138 ft | 458 kts | 214° |
| 2026-04-24 16:01 | 43.23770 | 4.94703 | 33135 ft | 458 kts | 214° |
| 2026-04-24 16:02 | 43.18486 | 4.89747 | 33144 ft | 461 kts | 215° |
| 2026-04-24 16:02 | 43.13182 | 4.84787 | 33142 ft | 461 kts | 215° |
| 2026-04-24 16:03 | 43.07838 | 4.79791 | 33150 ft | 463 kts | 215° |
| 2026-04-24 16:03 | 43.02369 | 4.75226 | 33146 ft | 464 kts | 210° |
| 2026-04-24 16:04 | 42.96726 | 4.70964 | 33147 ft | 464 kts | 210° |
| 2026-04-24 16:04 | 42.91072 | 4.66692 | 33152 ft | 465 kts | 210° |
| 2026-04-24 16:05 | 42.82572 | 4.60274 | 33152 ft | 466 kts | 210° |
| 2026-04-24 16:06 | 42.74057 | 4.53861 | 33149 ft | 467 kts | 210° |
| 2026-04-24 16:07 | 42.65515 | 4.47445 | 33150 ft | 468 kts | 210° |
| 2026-04-24 16:07 | 42.56960 | 4.41048 | 33150 ft | 468 kts | 210° |
| 2026-04-24 16:08 | 42.48404 | 4.34667 | 33150 ft | 468 kts | 210° |
| 2026-04-24 16:09 | 42.39837 | 4.28302 | 33151 ft | 468 kts | 210° |
| 2026-04-24 16:09 | 42.34118 | 4.24060 | 33151 ft | 468 kts | 210° |
| 2026-04-24 16:11 | 42.19878 | 4.13528 | 33147 ft | 465 kts | 210° |
| 2026-04-24 16:11 | 42.14241 | 4.09373 | 33147 ft | 465 kts | 210° |
| 2026-04-24 16:12 | 42.05722 | 4.03124 | 33148 ft | 465 kts | 210° |
| 2026-04-24 16:13 | 41.97203 | 3.96896 | 33147 ft | 465 kts | 210° |
| 2026-04-24 16:13 | 41.91353 | 3.93206 | 33143 ft | 467 kts | 199° |
| 2026-04-24 16:14 | 41.85101 | 3.90818 | 33144 ft | 467 kts | 197° |
| 2026-04-24 16:14 | 41.75705 | 3.87322 | 33147 ft | 467 kts | 197° |
| 2026-04-24 16:15 | 41.66318 | 3.83835 | 33146 ft | 466 kts | 197° |
| 2026-04-24 16:16 | 41.56938 | 3.80355 | 33142 ft | 466 kts | 197° |
| 2026-04-24 16:17 | 41.41371 | 3.74604 | 33144 ft | 464 kts | 197° |
| 2026-04-24 16:18 | 41.28932 | 3.70031 | 33148 ft | 464 kts | 197° |
| 2026-04-24 16:19 | 41.19602 | 3.66610 | 33146 ft | 463 kts | 197° |
| 2026-04-24 16:20 | 41.10282 | 3.63205 | 33142 ft | 463 kts | 197° |
| 2026-04-24 16:20 | 41.00968 | 3.59816 | 33140 ft | 462 kts | 197° |
| 2026-04-24 16:21 | 40.91727 | 3.56458 | 32806 ft | 460 kts | 197° |
| 2026-04-24 16:21 | 40.88635 | 3.55337 | 32342 ft | 460 kts | 197° |
| 2026-04-24 16:22 | 40.85544 | 3.54215 | 31784 ft | 461 kts | 197° |
| 2026-04-24 16:22 | 40.79356 | 3.51981 | 30580 ft | 462 kts | 197° |
| 2026-04-24 16:22 | 40.76258 | 3.50860 | 29945 ft | 463 kts | 197° |
| 2026-04-24 16:23 | 40.73138 | 3.49734 | 29250 ft | 465 kts | 197° |
| 2026-04-24 16:23 | 40.70012 | 3.48607 | 28570 ft | 467 kts | 197° |
| 2026-04-24 16:23 | 40.66870 | 3.47470 | 27904 ft | 470 kts | 197° |
| 2026-04-24 16:24 | 40.60537 | 3.45192 | 26625 ft | 474 kts | 197° |
| 2026-04-24 16:24 | 40.57347 | 3.44046 | 26009 ft | 476 kts | 197° |
| 2026-04-24 16:24 | 40.54144 | 3.42899 | 25397 ft | 478 kts | 197° |
| 2026-04-24 16:24 | 40.50932 | 3.41749 | 24803 ft | 480 kts | 197° |
| 2026-04-24 16:25 | 40.47706 | 3.40594 | 24120 ft | 480 kts | 197° |
| 2026-04-24 16:25 | 40.44448 | 3.39602 | 22783 ft | 484 kts | 190° |
| 2026-04-24 16:25 | 40.41091 | 3.39391 | 21797 ft | 481 kts | 179° |
| 2026-04-24 16:26 | 40.34510 | 3.39768 | 20358 ft | 466 kts | 178° |
| 2026-04-24 16:26 | 40.31282 | 3.39926 | 19573 ft | 460 kts | 181° |
| 2026-04-24 16:26 | 40.25142 | 3.38000 | 17537 ft | 455 kts | 203° |
| 2026-04-24 16:27 | 40.22248 | 3.36394 | 16669 ft | 449 kts | 204° |
| 2026-04-24 16:27 | 40.19377 | 3.34800 | 15736 ft | 445 kts | 204° |
| 2026-04-24 16:27 | 40.16552 | 3.33258 | 15195 ft | 435 kts | 204° |
| 2026-04-24 16:27 | 40.13809 | 3.31774 | 14867 ft | 419 kts | 204° |
| 2026-04-24 16:28 | 40.11170 | 3.30352 | 14612 ft | 402 kts | 204° |
| 2026-04-24 16:28 | 40.08633 | 3.28987 | 14394 ft | 386 kts | 204° |
| 2026-04-24 16:28 | 40.03882 | 3.26433 | 14023 ft | 358 kts | 204° |
| 2026-04-24 16:29 | 40.01628 | 3.25221 | 13850 ft | 344 kts | 204° |
| 2026-04-24 16:29 | 39.99457 | 3.24053 | 13668 ft | 330 kts | 204° |
| 2026-04-24 16:29 | 39.95304 | 3.21793 | 12866 ft | 329 kts | 207° |
| 2026-04-24 16:30 | 39.91178 | 3.18844 | 11786 ft | 332 kts | 212° |
| 2026-04-24 16:30 | 39.89194 | 3.17368 | 11177 ft | 325 kts | 212° |
| 2026-04-24 16:30 | 39.87253 | 3.15926 | 10578 ft | 318 kts | 212° |
| 2026-04-24 16:31 | 39.85345 | 3.14519 | 9998 ft | 313 kts | 212° |
| 2026-04-24 16:31 | 39.83467 | 3.13135 | 9342 ft | 307 kts | 212° |
| 2026-04-24 16:31 | 39.81624 | 3.11764 | 8710 ft | 303 kts | 212° |
| 2026-04-24 16:31 | 39.79815 | 3.10400 | 8082 ft | 299 kts | 212° |
| 2026-04-24 16:32 | 39.78612 | 3.09479 | 7675 ft | 297 kts | 212° |
| 2026-04-24 16:32 | 39.76274 | 3.07659 | 6950 ft | 294 kts | 212° |
| 2026-04-24 16:32 | 39.74541 | 3.06278 | 6453 ft | 291 kts | 212° |
| 2026-04-24 16:32 | 39.72835 | 3.04893 | 5942 ft | 287 kts | 212° |
| 2026-04-24 16:33 | 39.71157 | 3.03519 | 5425 ft | 284 kts | 212° |
| 2026-04-24 16:33 | 39.69495 | 3.02155 | 4951 ft | 281 kts | 212° |
| 2026-04-24 16:33 | 39.67864 | 3.00786 | 4450 ft | 278 kts | 216° |
| 2026-04-24 16:33 | 39.66458 | 2.99116 | 4038 ft | 271 kts | 229° |
| 2026-04-24 16:34 | 39.65352 | 2.97174 | 3692 ft | 264 kts | 239° |
| 2026-04-24 16:34 | 39.64489 | 2.95117 | 3350 ft | 256 kts | 237° |
| 2026-04-24 16:34 | 39.63579 | 2.93194 | 3011 ft | 245 kts | 240° |
| 2026-04-24 16:34 | 39.62699 | 2.91345 | 2697 ft | 236 kts | 237° |
| 2026-04-24 16:35 | 39.61876 | 2.89600 | 2387 ft | 216 kts | 237° |
| 2026-04-24 16:35 | 39.61124 | 2.88001 | 2165 ft | 201 kts | 237° |
| 2026-04-24 16:35 | 39.60415 | 2.86495 | 1891 ft | 191 kts | 236° |
| 2026-04-24 16:35 | 39.59739 | 2.85063 | 1691 ft | 180 kts | 237° |
| 2026-04-24 16:36 | 39.59107 | 2.83713 | 1496 ft | 166 kts | 237° |
| 2026-04-24 16:36 | 39.58536 | 2.82501 | 1217 ft | 153 kts | 236° |
| 2026-04-24 16:36 | 39.57981 | 2.81329 | 1014 ft | 153 kts | 235° |
| 2026-04-24 16:36 | 39.57411 | 2.80123 | 830 ft | 158 kts | 235° |
| 2026-04-24 16:37 | 39.56830 | 2.78926 | 585 ft | 154 kts | 238° |
| 2026-04-24 16:37 | 39.56302 | 2.77772 | 382 ft | 145 kts | 240° |
| 2026-04-24 16:37 | 39.55951 | 2.77040 | 242 ft | 143 kts | 240° |
| 2026-04-24 16:37 | 39.55265 | 2.75582 | 47 ft | 137 kts | 242° |
| 2026-04-24 16:38 | 39.54789 | 2.74579 | 129 ft | 137 kts | 242° |
| 2026-04-24 16:38 | 39.54268 | 2.73496 | 1016 ft | 149 kts | 231° |
| 2026-04-24 16:38 | 39.53402 | 2.72793 | 1418 ft | 154 kts | 182° |
| 2026-04-24 16:38 | 39.52307 | 2.72693 | 1882 ft | 162 kts | 178° |
| 2026-04-24 16:39 | 39.51145 | 2.72641 | 2421 ft | 175 kts | 177° |
| 2026-04-24 16:39 | 39.49849 | 2.72412 | 2837 ft | 200 kts | 191° |
| 2026-04-24 16:39 | 39.48388 | 2.71949 | 3115 ft | 233 kts | 192° |
| 2026-04-24 16:39 | 39.46791 | 2.71420 | 3255 ft | 236 kts | 193° |
| 2026-04-24 16:40 | 39.45208 | 2.70887 | 3444 ft | 236 kts | 193° |
| 2026-04-24 16:40 | 39.43606 | 2.70346 | 3670 ft | 240 kts | 193° |
| 2026-04-24 16:40 | 39.41955 | 2.70129 | 3896 ft | 238 kts | 168° |
| 2026-04-24 16:40 | 39.40455 | 2.70910 | 4009 ft | 232 kts | 140° |
| 2026-04-24 16:41 | 39.39459 | 2.72497 | 4010 ft | 226 kts | 109° |
| 2026-04-24 16:41 | 39.39212 | 2.73783 | 4016 ft | 223 kts | 90° |
| 2026-04-24 16:41 | 39.39510 | 2.75737 | 4007 ft | 222 kts | 66° |
| 2026-04-24 16:41 | 39.40179 | 2.77517 | 4013 ft | 220 kts | 62° |
| 2026-04-24 16:42 | 39.40881 | 2.79266 | 4004 ft | 221 kts | 62° |
| 2026-04-24 16:42 | 39.41829 | 2.81612 | 4007 ft | 223 kts | 62° |
| 2026-04-24 16:42 | 39.42309 | 2.82805 | 4000 ft | 222 kts | 62° |
| 2026-04-24 16:42 | 39.43012 | 2.84560 | 4006 ft | 218 kts | 62° |
| 2026-04-24 16:43 | 39.43711 | 2.86319 | 3991 ft | 220 kts | 62° |
| 2026-04-24 16:43 | 39.44418 | 2.88096 | 3995 ft | 221 kts | 62° |
| 2026-04-24 16:43 | 39.45117 | 2.89852 | 4003 ft | 219 kts | 62° |
| 2026-04-24 16:43 | 39.45817 | 2.91607 | 4014 ft | 219 kts | 62° |
| 2026-04-24 16:44 | 39.46523 | 2.93369 | 4011 ft | 223 kts | 62° |
| 2026-04-24 16:44 | 39.47235 | 2.95132 | 4021 ft | 221 kts | 62° |
| 2026-04-24 16:44 | 39.47936 | 2.96878 | 4015 ft | 218 kts | 62° |
| 2026-04-24 16:44 | 39.48639 | 2.98638 | 4010 ft | 222 kts | 62° |
| 2026-04-24 16:45 | 39.49345 | 3.00408 | 4007 ft | 221 kts | 62° |
| 2026-04-24 16:45 | 39.50046 | 3.02170 | 4011 ft | 218 kts | 62° |
| 2026-04-24 16:45 | 39.50744 | 3.03928 | 4011 ft | 220 kts | 62° |
| 2026-04-24 16:45 | 39.51448 | 3.05697 | 4009 ft | 223 kts | 62° |
| 2026-04-24 16:46 | 39.52174 | 3.07474 | 4015 ft | 223 kts | 62° |
| 2026-04-24 16:46 | 39.52904 | 3.09229 | 4012 ft | 221 kts | 62° |
| 2026-04-24 16:46 | 39.53638 | 3.10985 | 4016 ft | 222 kts | 62° |
| 2026-04-24 16:46 | 39.54372 | 3.12753 | 4012 ft | 222 kts | 62° |
| 2026-04-24 16:47 | 39.55098 | 3.14514 | 4008 ft | 221 kts | 62° |
| 2026-04-24 16:47 | 39.55828 | 3.16278 | 4016 ft | 222 kts | 62° |
| 2026-04-24 16:47 | 39.56560 | 3.18049 | 4016 ft | 223 kts | 62° |
| 2026-04-24 16:47 | 39.57289 | 3.19817 | 4013 ft | 222 kts | 62° |
| 2026-04-24 16:48 | 39.58011 | 3.21575 | 4019 ft | 222 kts | 62° |
| 2026-04-24 16:48 | 39.58773 | 3.23313 | 4013 ft | 223 kts | 52° |
| 2026-04-24 16:48 | 39.59973 | 3.24506 | 4004 ft | 224 kts | 22° |
| 2026-04-24 16:48 | 39.61537 | 3.24740 | 4013 ft | 229 kts | 353° |
| 2026-04-24 16:49 | 39.63030 | 3.23998 | 4019 ft | 233 kts | 334° |
| 2026-04-24 16:49 | 39.64443 | 3.22954 | 4017 ft | 234 kts | 332° |
| 2026-04-24 16:49 | 39.65849 | 3.21895 | 3927 ft | 234 kts | 332° |
| 2026-04-24 16:49 | 39.67255 | 3.20830 | 3734 ft | 233 kts | 331° |
| 2026-04-24 16:50 | 39.68080 | 3.19941 | 3569 ft | 235 kts | 311° |
| 2026-04-24 16:50 | 39.68881 | 3.17334 | 3241 ft | 238 kts | 276° |
| 2026-04-24 16:50 | 39.68977 | 3.15185 | 3020 ft | 239 kts | 272° |
| 2026-04-24 16:50 | 39.69032 | 3.13029 | 2983 ft | 238 kts | 272° |
| 2026-04-24 16:51 | 39.69081 | 3.10876 | 2997 ft | 237 kts | 272° |
| 2026-04-24 16:51 | 39.69128 | 3.08747 | 3006 ft | 236 kts | 272° |
| 2026-04-24 16:51 | 39.69158 | 3.06643 | 3009 ft | 237 kts | 266° |
| 2026-04-24 16:51 | 39.68812 | 3.04560 | 2999 ft | 237 kts | 249° |
| 2026-04-24 16:52 | 39.68123 | 3.02628 | 3009 ft | 235 kts | 239° |
| 2026-04-24 16:52 | 39.67217 | 3.00855 | 3020 ft | 237 kts | 234° |
| 2026-04-24 16:52 | 39.66352 | 2.99083 | 3011 ft | 224 kts | 237° |
| 2026-04-24 16:52 | 39.65558 | 2.97415 | 3000 ft | 214 kts | 237° |
| 2026-04-24 16:53 | 39.64776 | 2.95759 | 3001 ft | 215 kts | 238° |
| 2026-04-24 16:53 | 39.64004 | 2.94119 | 2998 ft | 212 kts | 238° |
| 2026-04-24 16:53 | 39.63252 | 2.92522 | 2928 ft | 199 kts | 238° |
| 2026-04-24 16:53 | 39.62549 | 2.91027 | 2705 ft | 190 kts | 237° |
| 2026-04-24 16:54 | 39.61883 | 2.89612 | 2435 ft | 179 kts | 237° |
| 2026-04-24 16:54 | 39.61239 | 2.88242 | 2190 ft | 176 kts | 237° |
| 2026-04-24 16:54 | 39.60601 | 2.86887 | 1932 ft | 176 kts | 236° |
| 2026-04-24 16:54 | 39.59965 | 2.85538 | 1694 ft | 174 kts | 236° |
| 2026-04-24 16:55 | 39.59333 | 2.84196 | 1462 ft | 174 kts | 236° |
| 2026-04-24 16:55 | 39.58713 | 2.82880 | 1262 ft | 169 kts | 236° |
| 2026-04-24 16:55 | 39.58129 | 2.81639 | 1032 ft | 154 kts | 234° |
| 2026-04-24 16:55 | 39.57572 | 2.80462 | 824 ft | 152 kts | 235° |
| 2026-04-24 16:56 | 39.57029 | 2.79320 | 620 ft | 146 kts | 238° |
| 2026-04-24 16:56 | 39.56509 | 2.78214 | 406 ft | 142 kts | 239° |
| 2026-04-24 16:56 | 39.55999 | 2.77136 | 242 ft | 140 kts | 240° |
| 2026-04-24 16:56 | 39.55489 | 2.76050 | 70 ft | 143 kts | 241° |
| 2026-04-24 16:57 | 39.54998 | 2.75011 | 35 ft | 117 kts | 239° |
| 2026-04-24 16:57 | 39.54719 | 2.74425 | 35 ft | 47 kts | 239° |
| 2026-04-24 16:57 | 39.54600 | 2.74169 | 35 ft | 23 kts | 243° |
| 2026-04-24 16:57 | 39.54555 | 2.73963 | 35 ft | 25 kts | 265° |
| 2026-04-24 16:58 | 39.54552 | 2.73830 | 35 ft | 6 kts | 269° |
| 2026-04-24 16:58 | 39.54551 | 2.73787 | 35 ft | 1 kts | 268° |
| 2026-04-24 16:59 | 39.54551 | 2.73779 | 35 ft | 3 kts | 268° |
| 2026-04-24 16:59 | 39.54553 | 2.73719 | 35 ft | 10 kts | 291° |
| 2026-04-24 16:59 | 39.54659 | 2.73850 | 35 ft | 14 kts | 58° |
| 2026-04-24 17:00 | 39.54709 | 2.73949 | 35 ft | 9 kts | 40° |
| 2026-04-24 17:00 | 39.54825 | 2.73998 | 35 ft | 9 kts | 24° |
| 2026-04-24 17:00 | 39.54889 | 2.73971 | 35 ft | 11 kts | 328° |
| 2026-04-24 17:01 | 39.55041 | 2.73851 | 35 ft | 14 kts | 328° |
| 2026-04-24 17:01 | 39.55096 | 2.73804 | 35 ft | 6 kts | 310° |
| 2026-04-24 17:02 | 39.55087 | 2.73756 | 35 ft | 0 kts | 238° |
| 2026-04-24 17:03 | 39.55067 | 2.73712 | 35 ft | 5 kts | 238° |
| 2026-04-24 17:03 | 39.55056 | 2.73690 | 35 ft | 0 kts | 238° |